sensor_id;sensor_type;location;lat;lon;timestamp;pressure;altitude;pressure_sealevel;temperature;humidity
54022;BME280;39936;51.058;17.220;2022-12-18T00:00:06;103451.41;;;-6.13;100.00
54022;BME280;39936;51.058;17.220;2022-12-18T00:04:07;103450.54;;;-6.12;100.00
54022;BME280;39936;51.058;17.220;2022-12-18T00:08:11;103447.05;;;-6.11;100.00
54022;BME280;39936;51.058;17.220;2022-12-18T00:11:44;103452.00;;;-6.09;100.00
54022;BME280;39936;51.058;17.220;2022-12-18T00:15:20;103458.94;;;-6.12;100.00
54022;BME280;39936;51.058;17.220;2022-12-18T00:19:08;103466.23;;;-6.14;100.00
54022;BME280;39936;51.058;17.220;2022-12-18T00:22:36;103466.52;;;-6.19;100.00
54022;BME280;39936;51.058;17.220;2022-12-18T00:26:19;103474.66;;;-6.22;100.00
54022;BME280;39936;51.058;17.220;2022-12-18T00:30:03;103473.78;;;-6.21;100.00
54022;BME280;39936;51.058;17.220;2022-12-18T00:33:54;103480.13;;;-6.19;100.00
54022;BME280;39936;51.058;17.220;2022-12-18T00:37:38;103480.34;;;-6.17;100.00
54022;BME280;39936;51.058;17.220;2022-12-18T00:41:29;103486.77;;;-6.24;100.00
54022;BME280;39936;51.058;17.220;2022-12-18T00:45:39;103500.32;;;-6.30;100.00
54022;BME280;39936;51.058;17.220;2022-12-18T00:49:46;103512.09;;;-6.36;100.00
54022;BME280;39936;51.058;17.220;2022-12-18T00:53:22;103516.43;;;-6.36;100.00
54022;BME280;39936;51.058;17.220;2022-12-18T00:57:02;103522.98;;;-6.37;100.00
54022;BME280;39936;51.058;17.220;2022-12-18T01:00:46;103526.56;;;-6.39;100.00
54022;BME280;39936;51.058;17.220;2022-12-18T01:04:27;103531.40;;;-6.38;100.00
54022;BME280;39936;51.058;17.220;2022-12-18T01:07:49;103522.23;;;-6.43;100.00
54022;BME280;39936;51.058;17.220;2022-12-18T01:15:17;103542.66;;;-6.25;100.00
54022;BME280;39936;51.058;17.220;2022-12-18T01:18:52;103542.02;;;-6.21;100.00
54022;BME280;39936;51.058;17.220;2022-12-18T01:22:36;103545.57;;;-6.17;100.00
54022;BME280;39936;51.058;17.220;2022-12-18T01:26:33;103548.59;;;-6.16;100.00
54022;BME280;39936;51.058;17.220;2022-12-18T01:30:08;103551.56;;;-6.24;100.00
54022;BME280;39936;51.058;17.220;2022-12-18T01:33:31;103558.41;;;-6.27;100.00
54022;BME280;39936;51.058;17.220;2022-12-18T01:37:03;103562.04;;;-6.27;100.00
54022;BME280;39936;51.058;17.220;2022-12-18T01:40:12;103565.72;;;-6.25;100.00
54022;BME280;39936;51.058;17.220;2022-12-18T01:52:17;103571.05;;;-6.23;100.00
54022;BME280;39936;51.058;17.220;2022-12-18T01:56:05;103565.08;;;-6.23;100.00
54022;BME280;39936;51.058;17.220;2022-12-18T01:59:41;103574.07;;;-6.26;100.00
54022;BME280;39936;51.058;17.220;2022-12-18T02:03:33;103576.98;;;-6.28;100.00
54022;BME280;39936;51.058;17.220;2022-12-18T02:18:23;103569.02;;;-6.25;100.00
54022;BME280;39936;51.058;17.220;2022-12-18T02:29:51;103592.06;;;-5.93;100.00
54022;BME280;39936;51.058;17.220;2022-12-18T02:33:13;103591.43;;;-6.03;100.00
54022;BME280;39936;51.058;17.220;2022-12-18T02:37:14;103598.20;;;-6.06;100.00
54022;BME280;39936;51.058;17.220;2022-12-18T02:41:30;103605.04;;;-5.94;100.00
54022;BME280;39936;51.058;17.220;2022-12-18T02:44:52;103611.81;;;-5.94;100.00
54022;BME280;39936;51.058;17.220;2022-12-18T02:48:26;103606.04;;;-6.01;100.00
54022;BME280;39936;51.058;17.220;2022-12-18T02:56:28;103610.30;;;-5.93;100.00
54022;BME280;39936;51.058;17.220;2022-12-18T03:07:38;103620.19;;;-5.80;100.00
54022;BME280;39936;51.058;17.220;2022-12-18T03:11:34;103610.56;;;-5.80;100.00
54022;BME280;39936;51.058;17.220;2022-12-18T03:15:35;103613.37;;;-5.89;100.00
54022;BME280;39936;51.058;17.220;2022-12-18T03:19:15;103613.58;;;-5.86;100.00
54022;BME280;39936;51.058;17.220;2022-12-18T03:23:15;103619.77;;;-5.87;100.00
54022;BME280;39936;51.058;17.220;2022-12-18T03:27:10;103631.77;;;-5.81;100.00
54022;BME280;39936;51.058;17.220;2022-12-18T03:30:59;103625.63;;;-5.76;100.00
54022;BME280;39936;51.058;17.220;2022-12-18T03:34:47;103626.11;;;-5.80;100.00
54022;BME280;39936;51.058;17.220;2022-12-18T03:38:05;103629.28;;;-5.86;100.00
54022;BME280;39936;51.058;17.220;2022-12-18T03:46:11;103621.77;;;-5.72;100.00
54022;BME280;39936;51.058;17.220;2022-12-18T03:53:50;103627.98;;;-5.57;100.00
54022;BME280;39936;51.058;17.220;2022-12-18T03:57:04;103635.55;;;-5.58;100.00
54022;BME280;39936;51.058;17.220;2022-12-18T04:00:33;103635.98;;;-5.58;100.00
54022;BME280;39936;51.058;17.220;2022-12-18T04:04:36;103641.65;;;-5.64;100.00
54022;BME280;39936;51.058;17.220;2022-12-18T04:08:25;103647.02;;;-5.74;100.00
54022;BME280;39936;51.058;17.220;2022-12-18T04:11:48;103650.20;;;-5.79;100.00
54022;BME280;39936;51.058;17.220;2022-12-18T04:14:58;103651.99;;;-5.66;100.00
54022;BME280;39936;51.058;17.220;2022-12-18T04:18:32;103653.15;;;-5.63;100.00
54022;BME280;39936;51.058;17.220;2022-12-18T04:22:05;103662.77;;;-5.62;100.00
54022;BME280;39936;51.058;17.220;2022-12-18T04:25:51;103670.24;;;-5.66;100.00
54022;BME280;39936;51.058;17.220;2022-12-18T04:29:19;103674.40;;;-5.65;100.00
54022;BME280;39936;51.058;17.220;2022-12-18T04:32:49;103679.28;;;-5.76;100.00
54022;BME280;39936;51.058;17.220;2022-12-18T04:36:20;103681.16;;;-5.81;100.00
54022;BME280;39936;51.058;17.220;2022-12-18T04:40:34;103687.63;;;-5.80;100.00
54022;BME280;39936;51.058;17.220;2022-12-18T04:43:59;103693.79;;;-5.73;100.00
54022;BME280;39936;51.058;17.220;2022-12-18T04:47:39;103701.94;;;-5.67;100.00
54022;BME280;39936;51.058;17.220;2022-12-18T04:51:15;103701.72;;;-5.71;100.00
54022;BME280;39936;51.058;17.220;2022-12-18T04:54:30;103702.89;;;-5.77;100.00
54022;BME280;39936;51.058;17.220;2022-12-18T04:57:45;103704.45;;;-5.79;100.00
54022;BME280;39936;51.058;17.220;2022-12-18T05:01:17;103715.30;;;-5.66;100.00
54022;BME280;39936;51.058;17.220;2022-12-18T05:05:08;103712.23;;;-5.65;100.00
54022;BME280;39936;51.058;17.220;2022-12-18T05:08:33;103716.16;;;-5.79;100.00
54022;BME280;39936;51.058;17.220;2022-12-18T05:11:43;103718.19;;;-5.77;100.00
54022;BME280;39936;51.058;17.220;2022-12-18T05:14:56;103719.84;;;-5.84;100.00
54022;BME280;39936;51.058;17.220;2022-12-18T05:18:24;103717.09;;;-5.85;100.00
54022;BME280;39936;51.058;17.220;2022-12-18T05:21:38;103722.48;;;-5.88;100.00
54022;BME280;39936;51.058;17.220;2022-12-18T05:25:21;103720.46;;;-5.87;100.00
54022;BME280;39936;51.058;17.220;2022-12-18T05:29:42;103733.42;;;-5.93;100.00
54022;BME280;39936;51.058;17.220;2022-12-18T05:33:10;103733.89;;;-5.93;100.00
54022;BME280;39936;51.058;17.220;2022-12-18T05:37:07;103727.49;;;-5.94;100.00
54022;BME280;39936;51.058;17.220;2022-12-18T05:41:10;103731.27;;;-5.87;100.00
54022;BME280;39936;51.058;17.220;2022-12-18T05:45:04;103739.63;;;-6.00;100.00
54022;BME280;39936;51.058;17.220;2022-12-18T05:48:38;103737.94;;;-5.98;100.00
54022;BME280;39936;51.058;17.220;2022-12-18T05:52:20;103740.59;;;-6.03;100.00
54022;BME280;39936;51.058;17.220;2022-12-18T05:55:50;103749.50;;;-6.10;100.00
54022;BME280;39936;51.058;17.220;2022-12-18T05:59:00;103766.27;;;-6.22;100.00
54022;BME280;39936;51.058;17.220;2022-12-18T06:02:29;103772.48;;;-6.24;100.00
54022;BME280;39936;51.058;17.220;2022-12-18T06:05:48;103779.60;;;-6.17;100.00
54022;BME280;39936;51.058;17.220;2022-12-18T06:09:00;103782.34;;;-6.11;100.00
54022;BME280;39936;51.058;17.220;2022-12-18T06:12:36;103778.95;;;-6.12;100.00
54022;BME280;39936;51.058;17.220;2022-12-18T06:16:12;103784.25;;;-6.16;100.00
54022;BME280;39936;51.058;17.220;2022-12-18T06:19:35;103785.28;;;-6.19;100.00
54022;BME280;39936;51.058;17.220;2022-12-18T06:23:33;103789.47;;;-6.15;100.00
54022;BME280;39936;51.058;17.220;2022-12-18T06:26:45;103794.66;;;-6.15;100.00
54022;BME280;39936;51.058;17.220;2022-12-18T06:35:19;103803.45;;;-6.02;100.00
54022;BME280;39936;51.058;17.220;2022-12-18T06:38:32;103814.09;;;-6.04;100.00
54022;BME280;39936;51.058;17.220;2022-12-18T06:42:36;103820.41;;;-6.00;100.00
54022;BME280;39936;51.058;17.220;2022-12-18T06:46:36;103817.20;;;-5.94;100.00
54022;BME280;39936;51.058;17.220;2022-12-18T06:49:47;103820.16;;;-5.98;100.00
54022;BME280;39936;51.058;17.220;2022-12-18T06:53:16;103826.09;;;-5.88;100.00
54022;BME280;39936;51.058;17.220;2022-12-18T06:56:40;103827.97;;;-5.94;100.00
54022;BME280;39936;51.058;17.220;2022-12-18T07:00:31;103824.07;;;-5.91;100.00
54022;BME280;39936;51.058;17.220;2022-12-18T07:04:14;103834.77;;;-5.88;100.00
54022;BME280;39936;51.058;17.220;2022-12-18T07:07:55;103844.05;;;-5.77;100.00
54022;BME280;39936;51.058;17.220;2022-12-18T07:11:03;103844.58;;;-5.67;100.00
54022;BME280;39936;51.058;17.220;2022-12-18T07:15:25;103845.40;;;-5.76;100.00
54022;BME280;39936;51.058;17.220;2022-12-18T07:19:09;103856.64;;;-5.81;100.00
54022;BME280;39936;51.058;17.220;2022-12-18T07:23:02;103860.67;;;-5.72;100.00
54022;BME280;39936;51.058;17.220;2022-12-18T07:26:13;103858.75;;;-5.75;100.00
54022;BME280;39936;51.058;17.220;2022-12-18T07:34:29;103865.47;;;-5.87;100.00
54022;BME280;39936;51.058;17.220;2022-12-18T07:38:50;103866.81;;;-5.89;100.00
54022;BME280;39936;51.058;17.220;2022-12-18T07:42:19;103870.27;;;-5.66;100.00
54022;BME280;39936;51.058;17.220;2022-12-18T07:46:39;103880.68;;;-5.44;100.00
54022;BME280;39936;51.058;17.220;2022-12-18T07:49:52;103886.85;;;-5.51;100.00
54022;BME280;39936;51.058;17.220;2022-12-18T07:54:01;103888.58;;;-5.69;100.00
54022;BME280;39936;51.058;17.220;2022-12-18T07:57:54;103881.59;;;-5.68;100.00
54022;BME280;39936;51.058;17.220;2022-12-18T08:01:13;103885.31;;;-5.71;100.00
54022;BME280;39936;51.058;17.220;2022-12-18T08:05:15;103880.90;;;-5.53;100.00
54022;BME280;39936;51.058;17.220;2022-12-18T08:08:52;103888.13;;;-5.44;100.00
54022;BME280;39936;51.058;17.220;2022-12-18T08:12:51;103893.98;;;-5.74;100.00
54022;BME280;39936;51.058;17.220;2022-12-18T08:16:04;103902.19;;;-5.88;100.00
54022;BME280;39936;51.058;17.220;2022-12-18T08:19:48;103911.70;;;-5.87;100.00
54022;BME280;39936;51.058;17.220;2022-12-18T08:23:28;103916.64;;;-5.89;100.00
54022;BME280;39936;51.058;17.220;2022-12-18T08:26:40;103925.22;;;-5.94;100.00
54022;BME280;39936;51.058;17.220;2022-12-18T08:30:36;103928.09;;;-5.99;100.00
54022;BME280;39936;51.058;17.220;2022-12-18T08:34:43;103932.83;;;-5.76;100.00
54022;BME280;39936;51.058;17.220;2022-12-18T08:38:07;103926.00;;;-5.48;100.00
54022;BME280;39936;51.058;17.220;2022-12-18T08:41:53;103932.74;;;-5.21;100.00
54022;BME280;39936;51.058;17.220;2022-12-18T08:45:15;103942.23;;;-5.43;100.00
54022;BME280;39936;51.058;17.220;2022-12-18T08:48:24;103946.22;;;-5.70;100.00
54022;BME280;39936;51.058;17.220;2022-12-18T08:56:15;103950.34;;;-5.67;100.00
54022;BME280;39936;51.058;17.220;2022-12-18T09:00:27;103952.10;;;-5.28;100.00
54022;BME280;39936;51.058;17.220;2022-12-18T09:04:43;103947.90;;;-5.33;100.00
54022;BME280;39936;51.058;17.220;2022-12-18T09:08:01;103943.32;;;-5.49;100.00
54022;BME280;39936;51.058;17.220;2022-12-18T09:11:23;103922.87;;;-5.46;100.00
54022;BME280;39936;51.058;17.220;2022-12-18T09:19:04;103939.66;;;-5.23;100.00
54022;BME280;39936;51.058;17.220;2022-12-18T09:22:15;103934.70;;;-5.37;100.00
54022;BME280;39936;51.058;17.220;2022-12-18T09:25:29;103922.75;;;-5.11;100.00
54022;BME280;39936;51.058;17.220;2022-12-18T09:28:46;103906.27;;;-4.74;100.00
54022;BME280;39936;51.058;17.220;2022-12-18T09:32:17;103896.98;;;-4.43;100.00
54022;BME280;39936;51.058;17.220;2022-12-18T09:35:24;103881.88;;;-4.13;100.00
54022;BME280;39936;51.058;17.220;2022-12-18T09:38:59;103877.89;;;-3.90;100.00
54022;BME280;39936;51.058;17.220;2022-12-18T09:42:28;103877.59;;;-4.53;95.58
54022;BME280;39936;51.058;17.220;2022-12-18T09:45:53;103871.74;;;-4.42;96.51
54022;BME280;39936;51.058;17.220;2022-12-18T09:49:11;103864.60;;;-4.27;96.45
54022;BME280;39936;51.058;17.220;2022-12-18T09:52:48;103866.31;;;-4.07;96.44
54022;BME280;39936;51.058;17.220;2022-12-18T09:56:42;103863.91;;;-4.06;95.18
54022;BME280;39936;51.058;17.220;2022-12-18T10:04:57;103869.63;;;-4.27;93.08
54022;BME280;39936;51.058;17.220;2022-12-18T10:12:23;103868.75;;;-4.54;94.58
54022;BME280;39936;51.058;17.220;2022-12-18T10:15:55;103878.48;;;-4.29;94.98
54022;BME280;39936;51.058;17.220;2022-12-18T10:19:56;103886.29;;;-4.13;94.86
54022;BME280;39936;51.058;17.220;2022-12-18T10:23:42;103880.43;;;-4.27;93.09
54022;BME280;39936;51.058;17.220;2022-12-18T10:28:17;103890.75;;;-4.25;93.21
54022;BME280;39936;51.058;17.220;2022-12-18T10:31:36;103892.58;;;-4.11;93.31
54022;BME280;39936;51.058;17.220;2022-12-18T10:35:24;103889.60;;;-4.28;92.75
54022;BME280;39936;51.058;17.220;2022-12-18T10:42:19;103879.66;;;-4.33;93.21
54022;BME280;39936;51.058;17.220;2022-12-18T10:49:50;103887.98;;;-4.38;93.23
54022;BME280;39936;51.058;17.220;2022-12-18T10:53:42;103886.63;;;-4.39;92.98
54022;BME280;39936;51.058;17.220;2022-12-18T11:05:35;103886.73;;;-4.06;95.19
54022;BME280;39936;51.058;17.220;2022-12-18T11:09:04;103878.86;;;-3.79;95.06
54022;BME280;39936;51.058;17.220;2022-12-18T11:13:10;103889.83;;;-3.63;93.37
54022;BME280;39936;51.058;17.220;2022-12-18T11:16:29;103892.23;;;-3.55;92.33
54022;BME280;39936;51.058;17.220;2022-12-18T11:20:06;103892.81;;;-3.68;91.03
54022;BME280;39936;51.058;17.220;2022-12-18T11:23:25;103896.18;;;-3.62;91.25
54022;BME280;39936;51.058;17.220;2022-12-18T11:26:36;103898.51;;;-3.76;90.29
54022;BME280;39936;51.058;17.220;2022-12-18T11:30:26;103908.89;;;-4.49;92.13
54022;BME280;39936;51.058;17.220;2022-12-18T11:34:16;103906.79;;;-4.58;94.36
54022;BME280;39936;51.058;17.220;2022-12-18T11:38:26;103915.41;;;-4.52;95.81
54022;BME280;39936;51.058;17.220;2022-12-18T11:46:36;103909.55;;;-4.58;96.55
54022;BME280;39936;51.058;17.220;2022-12-18T11:50:19;103905.77;;;-4.18;96.60
54022;BME280;39936;51.058;17.220;2022-12-18T11:53:51;103899.28;;;-3.92;95.32
54022;BME280;39936;51.058;17.220;2022-12-18T12:00:36;103886.59;;;-3.90;92.86
54022;BME280;39936;51.058;17.220;2022-12-18T12:04:23;103883.38;;;-3.71;93.09
54022;BME280;39936;51.058;17.220;2022-12-18T12:19:32;103879.56;;;-4.36;92.62
54022;BME280;39936;51.058;17.220;2022-12-18T12:23:34;103881.59;;;-4.21;91.95
54022;BME280;39936;51.058;17.220;2022-12-18T12:27:40;103879.65;;;-4.09;91.90
54022;BME280;39936;51.058;17.220;2022-12-18T12:39:30;103859.55;;;-3.49;90.30
54022;BME280;39936;51.058;17.220;2022-12-18T12:46:39;103875.80;;;-4.22;89.01
54022;BME280;39936;51.058;17.220;2022-12-18T12:50:20;103877.97;;;-4.23;89.75
54022;BME280;39936;51.058;17.220;2022-12-18T12:53:53;103876.91;;;-4.16;89.96
54022;BME280;39936;51.058;17.220;2022-12-18T13:01:16;103877.69;;;-4.07;90.53
54022;BME280;39936;51.058;17.220;2022-12-18T13:08:58;103884.13;;;-3.98;90.19
54022;BME280;39936;51.058;17.220;2022-12-18T13:12:58;103880.03;;;-4.10;89.99
54022;BME280;39936;51.058;17.220;2022-12-18T13:16:43;103881.07;;;-4.36;90.40
54022;BME280;39936;51.058;17.220;2022-12-18T13:20:18;103883.64;;;-4.42;91.17
54022;BME280;39936;51.058;17.220;2022-12-18T13:23:34;103880.73;;;-4.75;92.33
54022;BME280;39936;51.058;17.220;2022-12-18T13:39:32;103893.18;;;-5.72;99.88
54022;BME280;39936;51.058;17.220;2022-12-18T13:47:02;103912.54;;;-5.70;100.00
54022;BME280;39936;51.058;17.220;2022-12-18T13:50:40;103912.46;;;-5.77;100.00
54022;BME280;39936;51.058;17.220;2022-12-18T13:58:04;103915.53;;;-5.94;100.00
54022;BME280;39936;51.058;17.220;2022-12-18T14:01:56;103918.64;;;-6.04;100.00
54022;BME280;39936;51.058;17.220;2022-12-18T14:06:20;103918.70;;;-6.06;100.00
54022;BME280;39936;51.058;17.220;2022-12-18T14:10:01;103924.31;;;-5.92;100.00
54022;BME280;39936;51.058;17.220;2022-12-18T14:13:36;103924.20;;;-5.82;100.00
54022;BME280;39936;51.058;17.220;2022-12-18T14:17:11;103929.37;;;-5.73;100.00
54022;BME280;39936;51.058;17.220;2022-12-18T14:21:05;103913.49;;;-5.91;100.00
54022;BME280;39936;51.058;17.220;2022-12-18T14:25:33;103946.50;;;-5.82;100.00
54022;BME280;39936;51.058;17.220;2022-12-18T14:28:44;103949.70;;;-5.90;100.00
54022;BME280;39936;51.058;17.220;2022-12-18T14:32:21;103951.58;;;-6.03;100.00
54022;BME280;39936;51.058;17.220;2022-12-18T14:35:41;103956.82;;;-6.09;100.00
54022;BME280;39936;51.058;17.220;2022-12-18T14:39:01;103963.19;;;-6.23;100.00
54022;BME280;39936;51.058;17.220;2022-12-18T14:42:48;103965.11;;;-6.36;100.00
54022;BME280;39936;51.058;17.220;2022-12-18T14:46:06;103976.97;;;-6.27;100.00
54022;BME280;39936;51.058;17.220;2022-12-18T14:49:37;103970.57;;;-6.36;100.00
54022;BME280;39936;51.058;17.220;2022-12-18T14:53:39;103977.27;;;-6.42;100.00
54022;BME280;39936;51.058;17.220;2022-12-18T14:57:40;103978.66;;;-6.42;100.00
54022;BME280;39936;51.058;17.220;2022-12-18T15:05:19;103967.64;;;-6.37;100.00
54022;BME280;39936;51.058;17.220;2022-12-18T15:13:15;103945.09;;;-6.59;100.00
54022;BME280;39936;51.058;17.220;2022-12-18T15:16:23;103969.91;;;-6.46;100.00
54022;BME280;39936;51.058;17.220;2022-12-18T15:20:03;103965.91;;;-6.51;100.00
54022;BME280;39936;51.058;17.220;2022-12-18T15:23:35;103970.47;;;-6.54;100.00
54022;BME280;39936;51.058;17.220;2022-12-18T15:27:45;103966.50;;;-6.54;100.00
54022;BME280;39936;51.058;17.220;2022-12-18T15:31:05;103961.15;;;-6.73;100.00
54022;BME280;39936;51.058;17.220;2022-12-18T15:34:21;103967.92;;;-6.73;100.00
54022;BME280;39936;51.058;17.220;2022-12-18T15:38:52;103967.49;;;-6.79;100.00
54022;BME280;39936;51.058;17.220;2022-12-18T15:42:01;103968.62;;;-6.79;100.00
54022;BME280;39936;51.058;17.220;2022-12-18T15:45:51;103971.02;;;-6.81;100.00
54022;BME280;39936;51.058;17.220;2022-12-18T15:49:05;103962.39;;;-6.85;100.00
54022;BME280;39936;51.058;17.220;2022-12-18T15:52:49;103960.24;;;-6.82;100.00
54022;BME280;39936;51.058;17.220;2022-12-18T15:56:14;103949.52;;;-6.86;100.00
54022;BME280;39936;51.058;17.220;2022-12-18T16:00:05;103940.77;;;-6.92;100.00
54022;BME280;39936;51.058;17.220;2022-12-18T16:03:23;103929.49;;;-6.91;100.00
54022;BME280;39936;51.058;17.220;2022-12-18T16:06:50;103925.52;;;-6.92;100.00
54022;BME280;39936;51.058;17.220;2022-12-18T16:10:27;103918.34;;;-6.93;100.00
54022;BME280;39936;51.058;17.220;2022-12-18T16:13:46;103919.34;;;-7.10;100.00
54022;BME280;39936;51.058;17.220;2022-12-18T16:17:20;103929.37;;;-7.32;100.00
54022;BME280;39936;51.058;17.220;2022-12-18T16:21:01;103928.09;;;-7.34;100.00
54022;BME280;39936;51.058;17.220;2022-12-18T16:25:00;103924.27;;;-7.43;100.00
54022;BME280;39936;51.058;17.220;2022-12-18T16:29:16;103929.67;;;-7.46;100.00
54022;BME280;39936;51.058;17.220;2022-12-18T16:32:32;103923.00;;;-7.49;100.00
54022;BME280;39936;51.058;17.220;2022-12-18T16:36:10;103923.01;;;-7.46;100.00
54022;BME280;39936;51.058;17.220;2022-12-18T16:39:46;103923.29;;;-7.63;100.00
54022;BME280;39936;51.058;17.220;2022-12-18T16:43:05;103924.72;;;-7.77;100.00
54022;BME280;39936;51.058;17.220;2022-12-18T16:46:13;103916.34;;;-7.99;100.00
54022;BME280;39936;51.058;17.220;2022-12-18T16:49:25;103929.04;;;-8.04;100.00
54022;BME280;39936;51.058;17.220;2022-12-18T16:52:52;103926.20;;;-8.18;100.00
54022;BME280;39936;51.058;17.220;2022-12-18T16:56:32;103924.04;;;-8.35;100.00
54022;BME280;39936;51.058;17.220;2022-12-18T17:00:31;103930.45;;;-8.44;100.00
54022;BME280;39936;51.058;17.220;2022-12-18T17:03:56;103932.36;;;-8.68;100.00
54022;BME280;39936;51.058;17.220;2022-12-18T17:07:58;103939.52;;;-8.92;100.00
54022;BME280;39936;51.058;17.220;2022-12-18T17:11:34;103944.27;;;-9.11;100.00
54022;BME280;39936;51.058;17.220;2022-12-18T17:14:50;103949.27;;;-9.37;100.00
54022;BME280;39936;51.058;17.220;2022-12-18T17:18:20;103958.30;;;-9.56;100.00
54022;BME280;39936;51.058;17.220;2022-12-18T17:22:01;103960.28;;;-9.74;100.00
54022;BME280;39936;51.058;17.220;2022-12-18T17:26:14;103945.85;;;-9.99;100.00
54022;BME280;39936;51.058;17.220;2022-12-18T17:29:51;103951.74;;;-10.20;100.00
54022;BME280;39936;51.058;17.220;2022-12-18T17:33:51;103948.13;;;-10.32;100.00
54022;BME280;39936;51.058;17.220;2022-12-18T17:37:04;103950.02;;;-10.30;100.00
54022;BME280;39936;51.058;17.220;2022-12-18T17:41:07;103958.83;;;-10.30;100.00
54022;BME280;39936;51.058;17.220;2022-12-18T17:44:44;103959.48;;;-10.28;100.00
54022;BME280;39936;51.058;17.220;2022-12-18T17:48:16;103965.64;;;-10.19;100.00
54022;BME280;39936;51.058;17.220;2022-12-18T17:51:57;103946.77;;;-10.20;100.00
54022;BME280;39936;51.058;17.220;2022-12-18T17:55:31;103944.18;;;-10.09;100.00
54022;BME280;39936;51.058;17.220;2022-12-18T17:59:18;103939.83;;;-10.04;100.00
54022;BME280;39936;51.058;17.220;2022-12-18T18:02:57;103947.92;;;-9.91;100.00
54022;BME280;39936;51.058;17.220;2022-12-18T18:06:07;103948.98;;;-9.82;100.00
54022;BME280;39936;51.058;17.220;2022-12-18T18:09:41;103942.93;;;-9.82;100.00
54022;BME280;39936;51.058;17.220;2022-12-18T18:13:24;103951.10;;;-9.78;100.00
54022;BME280;39936;51.058;17.220;2022-12-18T18:17:26;103954.52;;;-9.75;100.00
54022;BME280;39936;51.058;17.220;2022-12-18T18:20:42;103957.59;;;-9.71;100.00
54022;BME280;39936;51.058;17.220;2022-12-18T18:24:04;103955.71;;;-9.73;100.00
54022;BME280;39936;51.058;17.220;2022-12-18T18:27:26;103953.48;;;-9.76;100.00
54022;BME280;39936;51.058;17.220;2022-12-18T18:30:37;103953.56;;;-9.84;100.00
54022;BME280;39936;51.058;17.220;2022-12-18T18:34:21;103947.75;;;-9.92;100.00
54022;BME280;39936;51.058;17.220;2022-12-18T18:37:57;103941.10;;;-10.10;100.00
54022;BME280;39936;51.058;17.220;2022-12-18T18:41:36;103936.84;;;-10.17;100.00
54022;BME280;39936;51.058;17.220;2022-12-18T18:44:56;103928.91;;;-10.17;100.00
54022;BME280;39936;51.058;17.220;2022-12-18T18:48:38;103927.95;;;-10.18;100.00
54022;BME280;39936;51.058;17.220;2022-12-18T18:52:19;103920.86;;;-10.17;100.00
54022;BME280;39936;51.058;17.220;2022-12-18T18:55:57;103923.81;;;-10.17;100.00
54022;BME280;39936;51.058;17.220;2022-12-18T18:59:28;103933.38;;;-10.16;100.00
54022;BME280;39936;51.058;17.220;2022-12-18T19:02:46;103939.05;;;-10.12;100.00
54022;BME280;39936;51.058;17.220;2022-12-18T19:06:44;103941.37;;;-10.13;100.00
54022;BME280;39936;51.058;17.220;2022-12-18T19:10:21;103942.34;;;-10.07;100.00
54022;BME280;39936;51.058;17.220;2022-12-18T19:13:35;103929.97;;;-9.99;100.00
54022;BME280;39936;51.058;17.220;2022-12-18T19:16:57;103930.12;;;-9.89;100.00
54022;BME280;39936;51.058;17.220;2022-12-18T19:20:44;103919.74;;;-9.90;100.00
54022;BME280;39936;51.058;17.220;2022-12-18T19:24:21;103934.11;;;-9.70;100.00
54022;BME280;39936;51.058;17.220;2022-12-18T19:27:45;103935.39;;;-9.67;100.00
54022;BME280;39936;51.058;17.220;2022-12-18T19:31:19;103933.96;;;-9.61;100.00
54022;BME280;39936;51.058;17.220;2022-12-18T19:34:48;103932.29;;;-9.60;100.00
54022;BME280;39936;51.058;17.220;2022-12-18T19:38:10;103940.20;;;-9.47;100.00
54022;BME280;39936;51.058;17.220;2022-12-18T19:41:27;103934.86;;;-9.45;100.00
54022;BME280;39936;51.058;17.220;2022-12-18T19:44:45;103930.38;;;-9.46;100.00
54022;BME280;39936;51.058;17.220;2022-12-18T19:48:52;103921.19;;;-9.44;100.00
54022;BME280;39936;51.058;17.220;2022-12-18T19:53:10;103912.04;;;-9.44;100.00
54022;BME280;39936;51.058;17.220;2022-12-18T19:56:50;103909.46;;;-9.45;100.00
54022;BME280;39936;51.058;17.220;2022-12-18T20:00:50;103837.59;;;-9.92;100.00
54022;BME280;39936;51.058;17.220;2022-12-18T20:04:56;103904.86;;;-9.49;100.00
54022;BME280;39936;51.058;17.220;2022-12-18T20:09:06;103903.87;;;-9.44;100.00
54022;BME280;39936;51.058;17.220;2022-12-18T20:12:26;103897.70;;;-9.36;100.00
54022;BME280;39936;51.058;17.220;2022-12-18T20:16:09;103895.80;;;-9.33;100.00
54022;BME280;39936;51.058;17.220;2022-12-18T20:19:21;103898.53;;;-9.38;100.00
54022;BME280;39936;51.058;17.220;2022-12-18T20:22:51;103897.81;;;-9.39;100.00
54022;BME280;39936;51.058;17.220;2022-12-18T20:26:06;103894.69;;;-9.35;100.00
54022;BME280;39936;51.058;17.220;2022-12-18T20:30:01;103898.03;;;-9.32;100.00
54022;BME280;39936;51.058;17.220;2022-12-18T20:33:50;103888.24;;;-9.29;100.00
54022;BME280;39936;51.058;17.220;2022-12-18T20:37:25;103888.67;;;-9.22;100.00
54022;BME280;39936;51.058;17.220;2022-12-18T20:40:59;103890.61;;;-9.17;100.00
54022;BME280;39936;51.058;17.220;2022-12-18T20:44:32;103883.83;;;-9.13;100.00
54022;BME280;39936;51.058;17.220;2022-12-18T20:48:01;103878.30;;;-9.16;100.00
54022;BME280;39936;51.058;17.220;2022-12-18T20:51:48;103874.41;;;-9.13;100.00
54022;BME280;39936;51.058;17.220;2022-12-18T20:55:19;103884.07;;;-9.14;100.00
54022;BME280;39936;51.058;17.220;2022-12-18T20:58:56;103896.70;;;-9.13;100.00
54022;BME280;39936;51.058;17.220;2022-12-18T21:06:36;103892.41;;;-9.09;100.00
54022;BME280;39936;51.058;17.220;2022-12-18T21:10:24;103889.69;;;-9.11;100.00
54022;BME280;39936;51.058;17.220;2022-12-18T21:14:19;103891.42;;;-9.05;100.00